createdAt,value
2018-07-25T00:00:15.096Z,98682.50
2018-07-25T00:02:44.325Z,98683.78
2018-07-25T00:05:13.522Z,98679.91
2018-07-25T00:07:42.694Z,98676.48
2018-07-25T00:10:11.833Z,98680.27
2018-07-25T00:12:40.943Z,98680.95
2018-07-25T00:15:10.024Z,98676.44
2018-07-25T00:17:39.122Z,98676.98
2018-07-25T00:20:08.194Z,98680.83
2018-07-25T00:22:37.293Z,98680.34
2018-07-25T00:25:06.373Z,98676.53
2018-07-25T00:27:35.580Z,98681.64
2018-07-25T00:30:05.725Z,98681.82
2018-07-25T00:32:34.944Z,98677.33
2018-07-25T00:35:04.052Z,98674.95
2018-07-25T00:37:33.802Z,98682.66
2018-07-25T00:40:02.891Z,98674.80
2018-07-25T00:42:31.979Z,98678.10
2018-07-25T00:45:01.118Z,98678.97
2018-07-25T00:47:30.290Z,98674.80
2018-07-25T00:49:59.377Z,98678.97
2018-07-25T00:52:28.542Z,98673.83
2018-07-25T00:54:57.591Z,98679.72
2018-07-25T00:57:26.666Z,98681.94
2018-07-25T00:59:55.755Z,98677.47
2018-07-25T01:02:25.451Z,98680.03
2018-07-25T01:04:54.541Z,98678.42
2018-07-25T01:07:23.762Z,98680.03
2018-07-25T01:09:52.890Z,98683.63
2018-07-25T01:12:21.964Z,98677.73
2018-07-25T01:14:51.565Z,98676.70
2018-07-25T01:17:20.655Z,98678.36
2018-07-25T01:19:49.968Z,98685.21
2018-07-25T01:22:19.053Z,98679.27
2018-07-25T01:24:48.144Z,98682.84
2018-07-25T01:27:17.257Z,98681.38
2018-07-25T01:29:51.087Z,98678.80
2018-07-25T01:32:21.507Z,98674.63
2018-07-25T01:34:50.651Z,98682.27
2018-07-25T01:37:19.746Z,98680.05
2018-07-25T01:39:49.193Z,98687.16
2018-07-25T01:42:18.577Z,98688.34
2018-07-25T01:44:47.986Z,98683.75
2018-07-25T01:47:17.076Z,98691.13
2018-07-25T01:49:46.563Z,98689.78
2018-07-25T01:52:15.646Z,98690.59
2018-07-25T01:54:44.893Z,98694.88
2018-07-25T01:57:13.942Z,98687.50
2018-07-25T01:59:43.058Z,98694.86
2018-07-25T02:02:12.219Z,98693.64
2018-07-25T02:04:41.746Z,98692.20
2018-07-25T02:07:10.866Z,98697.58
2018-07-25T02:09:39.930Z,98693.64
2018-07-25T02:12:09.013Z,98696.09
2018-07-25T02:14:38.100Z,98698.80
2018-07-25T02:17:07.264Z,98699.36
2018-07-25T02:19:36.387Z,98696.00
2018-07-25T02:22:05.422Z,98698.56
2018-07-25T02:24:34.513Z,98701.94
2018-07-25T02:27:03.986Z,98703.97
2018-07-25T02:29:33.146Z,98699.58
2018-07-25T02:32:02.438Z,98705.30
2018-07-25T02:34:31.542Z,98712.80
2018-07-25T02:37:00.667Z,98710.80
2018-07-25T02:39:29.725Z,98714.16
2018-07-25T02:41:58.834Z,98716.35
2018-07-25T02:44:27.922Z,98719.03
2018-07-25T02:46:57.350Z,98716.55
2018-07-25T02:49:26.414Z,98717.90
2018-07-25T02:51:55.506Z,98721.17
2018-07-25T02:54:24.541Z,98722.13
2018-07-25T02:56:54.092Z,98721.77
2018-07-25T02:59:23.077Z,98728.47
2018-07-25T03:01:52.183Z,98726.90
2018-07-25T03:04:21.230Z,98731.45
2018-07-25T03:06:50.254Z,98732.62
2018-07-25T03:09:20.049Z,98727.05
2018-07-25T03:11:49.082Z,98725.02
2018-07-25T03:14:18.171Z,98728.98
2018-07-25T03:16:47.327Z,98727.70
2018-07-25T03:19:16.294Z,98730.61
2018-07-25T03:21:45.366Z,98730.38
2018-07-25T03:24:14.481Z,98732.17
2018-07-25T03:26:43.545Z,98728.50
2018-07-25T03:29:12.821Z,98736.20
2018-07-25T03:31:41.898Z,98733.06
2018-07-25T03:34:10.993Z,98737.98
2018-07-25T03:36:40.101Z,98733.83
2018-07-25T03:39:09.229Z,98735.52
2018-07-25T03:41:38.639Z,98731.95
2018-07-25T03:44:07.702Z,98744.58
2018-07-25T03:46:36.822Z,98739.64
2018-07-25T03:49:05.918Z,98742.85
2018-07-25T03:51:35.017Z,98736.38
2018-07-25T03:54:04.161Z,98746.15
2018-07-25T03:56:33.224Z,98743.47
2018-07-25T03:59:02.281Z,98741.63
2018-07-25T04:01:31.406Z,98744.77
2018-07-25T04:04:00.538Z,98749.77
2018-07-25T04:06:29.657Z,98750.33
2018-07-25T04:08:58.689Z,98752.91
2018-07-25T04:11:27.789Z,98752.31
2018-07-25T04:13:56.870Z,98748.12
2018-07-25T04:16:26.081Z,98755.30
2018-07-25T04:18:55.131Z,98754.44
2018-07-25T04:21:25.089Z,98755.83
2018-07-25T04:23:54.194Z,98758.77
2018-07-25T04:26:23.546Z,98754.44
2018-07-25T04:28:52.643Z,98760.84
2018-07-25T04:31:21.759Z,98757.37
2018-07-25T04:33:51.058Z,98763.19
2018-07-25T04:36:21.921Z,98763.55
2018-07-25T04:38:50.962Z,98761.15
2018-07-25T04:41:20.057Z,98758.83
2018-07-25T04:43:51.804Z,98768.72
2018-07-25T04:46:20.920Z,98764.19
2018-07-25T04:48:50.015Z,98773.92
2018-07-25T04:51:19.066Z,98775.91
2018-07-25T04:53:48.226Z,98781.97
2018-07-25T04:56:17.294Z,98774.73
2018-07-25T04:58:46.331Z,98777.33
2018-07-25T05:01:15.543Z,98774.09
2018-07-25T05:03:44.583Z,98771.52
2018-07-25T05:06:13.641Z,98772.66
2018-07-25T05:08:42.843Z,98776.60
2018-07-25T05:11:12.576Z,98774.23
2018-07-25T05:13:42.747Z,98790.78
2018-07-25T05:16:12.607Z,98780.85
2018-07-25T05:18:43.134Z,98785.48
2018-07-25T05:21:13.118Z,98784.69
2018-07-25T05:23:42.201Z,98786.73
2018-07-25T05:26:11.285Z,98782.80
2018-07-25T05:28:40.402Z,98789.65
2018-07-25T05:31:09.624Z,98789.65
2018-07-25T05:33:38.693Z,98792.09
2018-07-25T05:36:08.223Z,98789.96
2018-07-25T05:38:37.481Z,98792.45
2018-07-25T05:41:06.512Z,98790.50
2018-07-25T05:43:37.469Z,98793.88
2018-07-25T05:46:07.445Z,98790.98
2018-07-25T05:48:36.554Z,98796.45
2018-07-25T05:51:06.673Z,98790.41
2018-07-25T05:53:35.805Z,98793.34
2018-07-25T05:56:04.897Z,98795.92
2018-07-25T05:58:34.133Z,98796.57
2018-07-25T06:01:03.222Z,98799.39
2018-07-25T06:03:32.440Z,98797.79
2018-07-25T06:06:01.974Z,98797.13
2018-07-25T06:08:31.106Z,98796.45
2018-07-25T06:11:00.209Z,98793.88
2018-07-25T06:13:29.880Z,98801.37
2018-07-25T06:15:59.097Z,98799.46
2018-07-25T06:18:29.066Z,98803.45
2018-07-25T06:20:58.203Z,98799.83
2018-07-25T06:23:27.566Z,98802.03
2018-07-25T06:25:56.767Z,98805.25
2018-07-25T06:28:25.925Z,98798.08
2018-07-25T06:30:55.162Z,98801.68
2018-07-25T06:33:24.357Z,98799.74
2018-07-25T06:35:53.454Z,98802.13
2018-07-25T06:38:22.530Z,98810.95
2018-07-25T06:40:51.604Z,98818.45
2018-07-25T06:43:20.839Z,98811.83
2018-07-25T06:45:50.136Z,98810.59
2018-07-25T06:48:19.326Z,98814.63
2018-07-25T06:50:48.459Z,98813.96
2018-07-25T06:53:17.489Z,98816.58
2018-07-25T06:55:46.630Z,98825.52
2018-07-25T06:58:15.819Z,98827.93
2018-07-25T07:00:44.929Z,98832.94
2018-07-25T07:03:14.084Z,98827.20
2018-07-25T07:05:43.230Z,98829.87
2018-07-25T07:08:12.369Z,98831.89
2018-07-25T07:10:41.445Z,98834.43
2018-07-25T07:13:10.576Z,98837.64
2018-07-25T07:15:39.718Z,98839.57
2018-07-25T07:18:08.826Z,98832.34
2018-07-25T07:20:37.973Z,98832.82
2018-07-25T07:23:07.047Z,98835.63
2018-07-25T07:25:36.180Z,98828.11
2018-07-25T07:28:05.427Z,98828.23
2018-07-25T07:30:34.467Z,98829.86
2018-07-25T07:33:03.598Z,98825.30
2018-07-25T07:35:32.991Z,98830.08
2018-07-25T07:38:02.147Z,98688.75
2018-07-25T07:40:31.343Z,98826.64
2018-07-25T07:43:00.933Z,98831.59
2018-07-25T07:45:30.017Z,98823.27
2018-07-25T07:47:59.113Z,98829.77
2018-07-25T07:50:29.309Z,98823.92
2018-07-25T07:52:58.378Z,98830.92
2018-07-25T07:55:28.161Z,98831.98
2018-07-25T07:57:57.333Z,98828.20
2018-07-25T08:00:26.401Z,98821.38
2018-07-25T08:02:55.522Z,98825.78
2018-07-25T08:05:24.654Z,98827.02
2018-07-25T08:07:53.746Z,98827.20
2018-07-25T08:10:22.976Z,98821.00
2018-07-25T08:12:52.128Z,98820.52
2018-07-25T08:15:22.151Z,98821.00
2018-07-25T08:17:51.368Z,98821.27
2018-07-25T08:20:20.417Z,98825.62
2018-07-25T08:22:49.487Z,98824.91
2018-07-25T08:25:18.541Z,98825.91
2018-07-25T08:27:48.696Z,98818.98
2018-07-25T08:30:17.797Z,98818.13
2018-07-25T08:32:46.909Z,98820.67
2018-07-25T08:35:16.068Z,98822.03
2018-07-25T08:37:45.537Z,98821.51
2018-07-25T08:40:14.674Z,98818.89
2018-07-25T08:42:44.346Z,98820.29
2018-07-25T08:45:13.487Z,98820.14
2018-07-25T08:47:42.647Z,98820.16
2018-07-25T08:50:12.792Z,98816.12
2018-07-25T08:52:41.874Z,98814.02
2018-07-25T08:55:11.069Z,98822.01
2018-07-25T08:57:40.191Z,98813.66
2018-07-25T09:00:09.407Z,98818.33
2018-07-25T09:02:38.493Z,98819.70
2018-07-25T09:05:07.650Z,98813.86
2018-07-25T09:07:37.299Z,98812.50
2018-07-25T09:10:06.403Z,98814.80
2018-07-25T09:12:35.582Z,98815.53
2018-07-25T09:15:04.751Z,98814.73
2018-07-25T09:17:33.918Z,98812.79
2018-07-25T09:20:03.188Z,98817.45
2018-07-25T09:22:32.241Z,98813.74
2018-07-25T09:25:02.744Z,98815.06
2018-07-25T09:27:32.677Z,98813.31
2018-07-25T09:30:01.895Z,98816.78
2018-07-25T09:32:31.017Z,98810.69
2018-07-25T09:35:00.277Z,98810.63
2018-07-25T09:37:29.414Z,98811.00
2018-07-25T09:39:58.691Z,98806.81
2018-07-25T09:42:28.418Z,98808.47
2018-07-25T09:44:58.764Z,98804.87
2018-07-25T09:47:27.918Z,98808.12
2018-07-25T09:49:57.060Z,98799.67
2018-07-25T09:52:26.980Z,98797.63
2018-07-25T09:54:56.135Z,98799.37
2018-07-25T09:57:25.294Z,98794.20
2018-07-25T09:59:55.461Z,98786.95
2018-07-25T10:02:24.741Z,98787.08
2018-07-25T10:04:53.862Z,98764.31
2018-07-25T10:07:23.153Z,98788.38
2018-07-25T10:09:52.098Z,98786.55
2018-07-25T10:12:21.238Z,98787.59
2018-07-25T10:14:50.516Z,98788.47
2018-07-25T10:17:19.731Z,98788.38
2018-07-25T10:19:48.837Z,98779.34
2018-07-25T10:22:17.922Z,98774.40
2018-07-25T10:24:47.097Z,98780.81
2018-07-25T10:27:16.352Z,98789.20
2018-07-25T10:29:45.443Z,98779.48
2018-07-25T10:32:14.595Z,98789.00
2018-07-25T10:34:43.666Z,98782.44
2018-07-25T10:37:12.724Z,98772.66
2018-07-25T10:39:41.837Z,98776.66
2018-07-25T10:42:10.959Z,98778.91
2018-07-25T10:44:40.182Z,98780.59
2018-07-25T10:47:09.293Z,98780.49
2018-07-25T10:49:38.528Z,98778.14
2018-07-25T10:52:08.973Z,98783.96
2018-07-25T10:54:38.079Z,98778.28
2018-07-25T10:57:07.138Z,98775.98
2018-07-25T10:59:36.243Z,98771.92
2018-07-25T11:02:05.611Z,98768.69
2018-07-25T11:04:34.812Z,98767.61
2018-07-25T11:07:03.879Z,98769.27
2018-07-25T11:09:33.066Z,98767.84
2018-07-25T11:12:02.738Z,98767.12
2018-07-25T11:14:31.901Z,98765.44
2018-07-25T11:17:00.957Z,98758.09
2018-07-25T11:19:30.077Z,98754.10
2018-07-25T11:22:00.167Z,98763.67
2018-07-25T11:24:29.460Z,98761.80
2018-07-25T11:26:58.946Z,98759.23
2018-07-25T11:29:28.032Z,98754.33
2018-07-25T11:31:57.328Z,98758.59
2018-07-25T11:34:26.489Z,98752.59
2018-07-25T11:36:56.614Z,98756.81
2018-07-25T11:39:26.596Z,98755.92
2018-07-25T11:41:55.729Z,98752.96
2018-07-25T11:44:24.798Z,98749.93
2018-07-25T11:46:53.933Z,98752.08
2018-07-25T11:49:23.037Z,98751.59
2018-07-25T11:51:52.090Z,98749.73
2018-07-25T11:54:21.247Z,98754.23
2018-07-25T11:56:50.414Z,98753.28
2018-07-25T11:59:19.511Z,98745.00
2018-07-25T12:01:48.674Z,98745.72
2018-07-25T12:04:18.396Z,98747.88
2018-07-25T12:06:47.616Z,98746.68
2018-07-25T12:09:16.667Z,98749.70
2018-07-25T12:11:46.811Z,98746.59
2018-07-25T12:14:17.224Z,98753.56
2018-07-25T12:16:46.340Z,98747.06
2018-07-25T12:19:15.926Z,98746.06
2018-07-25T12:21:45.165Z,98741.70
2018-07-25T12:24:14.362Z,98742.16
2018-07-25T12:26:43.627Z,98742.59
2018-07-25T12:29:12.776Z,98717.97
2018-07-25T12:31:42.376Z,98732.97
2018-07-25T12:34:12.080Z,98726.64
2018-07-25T12:36:41.179Z,98735.95
2018-07-25T12:39:11.091Z,98729.83
2018-07-25T12:41:40.390Z,98732.30
2018-07-25T12:44:10.404Z,98728.39
2018-07-25T12:46:39.644Z,98727.75
2018-07-25T12:49:08.769Z,98725.03
2018-07-25T12:51:37.863Z,98698.37
2018-07-25T12:54:07.960Z,98715.27
2018-07-25T12:56:38.760Z,98717.88
2018-07-25T12:59:07.881Z,98719.76
2018-07-25T13:01:36.953Z,98710.28
2018-07-25T13:04:06.239Z,98714.26
2018-07-25T13:06:40.601Z,98717.29
2018-07-25T13:09:11.256Z,98711.95
2018-07-25T13:11:40.325Z,98703.70
2018-07-25T13:14:12.487Z,98709.90
2018-07-25T13:16:41.567Z,98711.50
2018-07-25T13:19:10.757Z,98705.27
2018-07-25T13:21:39.879Z,98712.23
2018-07-25T13:24:09.009Z,98710.83
2018-07-25T13:26:38.552Z,98705.70
2018-07-25T13:29:07.639Z,98704.67
2018-07-25T13:31:36.754Z,98706.45
2018-07-25T13:34:05.888Z,98702.24
2018-07-25T13:36:35.080Z,98701.55
2018-07-25T13:39:05.972Z,98699.80
2018-07-25T13:41:35.346Z,98703.11
2018-07-25T13:44:04.914Z,98695.13
2018-07-25T13:46:34.032Z,98703.95
2018-07-25T13:49:03.127Z,98701.33
2018-07-25T13:51:32.307Z,98705.78
2018-07-25T13:54:01.517Z,98699.76
2018-07-25T13:56:30.633Z,98699.89
2018-07-25T13:58:59.777Z,98704.73
2018-07-25T14:01:28.863Z,98696.24
2018-07-25T14:03:57.909Z,98695.89
2018-07-25T14:06:27.037Z,98691.88
2018-07-25T14:08:56.134Z,98689.75
2018-07-25T14:11:25.254Z,98682.89
2018-07-25T14:13:54.326Z,98680.34
2018-07-25T14:16:23.476Z,98682.70
2018-07-25T14:18:52.652Z,98675.09
2018-07-25T14:21:21.798Z,98671.45
2018-07-25T14:23:51.042Z,98679.42
2018-07-25T14:26:20.013Z,98671.19
2018-07-25T14:28:49.164Z,98671.72
2018-07-25T14:31:18.422Z,98671.05
2018-07-25T14:33:47.553Z,98672.92
2018-07-25T14:36:16.674Z,98671.91
2018-07-25T14:38:45.747Z,98670.50
2018-07-25T14:41:14.894Z,98666.47
2018-07-25T14:43:44.220Z,98665.90
2018-07-25T14:46:13.284Z,98663.16
2018-07-25T14:48:42.404Z,98664.68
2018-07-25T14:51:11.611Z,98662.39
2018-07-25T14:53:40.622Z,98665.42
2018-07-25T14:56:09.881Z,98658.61
2018-07-25T14:58:39.281Z,98657.42
2018-07-25T15:01:08.373Z,98659.48
2018-07-25T15:03:37.670Z,98655.40
2018-07-25T15:06:06.775Z,98652.56
2018-07-25T15:08:35.916Z,98649.86
2018-07-25T15:11:04.958Z,98648.99
2018-07-25T15:13:34.078Z,98646.83
2018-07-25T15:16:03.229Z,98648.23
2018-07-25T15:18:32.416Z,98647.13
2018-07-25T15:21:01.509Z,98639.16
2018-07-25T15:23:42.543Z,98639.05
2018-07-25T15:26:11.625Z,98639.33
2018-07-25T15:28:40.883Z,98636.20
2018-07-25T15:31:10.017Z,98632.97
2018-07-25T15:33:39.128Z,98637.38
2018-07-25T15:36:08.260Z,98631.66
2018-07-25T15:38:37.323Z,98631.02
2018-07-25T15:41:06.730Z,98635.19
2018-07-25T15:43:35.884Z,98625.34
2018-07-25T15:46:04.963Z,98630.72
2018-07-25T15:48:34.091Z,98626.49
2018-07-25T15:51:03.201Z,98631.48
2018-07-25T15:53:32.329Z,98627.33
2018-07-25T15:56:01.792Z,98627.86
2018-07-25T15:58:30.924Z,98629.36
2018-07-25T16:01:00.182Z,98625.03
2018-07-25T16:03:29.322Z,98616.38
2018-07-25T16:05:58.401Z,98619.75
2018-07-25T16:08:27.534Z,98613.66
2018-07-25T16:10:56.668Z,98611.94
2018-07-25T16:13:25.767Z,98612.13
2018-07-25T16:15:54.866Z,98614.28
2018-07-25T16:18:23.919Z,98613.20
2018-07-25T16:20:52.998Z,98609.39
2018-07-25T16:23:22.152Z,98606.48
2018-07-25T16:25:51.321Z,98599.03
2018-07-25T16:28:20.522Z,98605.92
2018-07-25T16:30:49.614Z,98598.20
2018-07-25T16:33:18.749Z,98591.71
2018-07-25T16:35:47.830Z,98595.30
2018-07-25T16:38:16.942Z,98592.70
2018-07-25T16:40:46.038Z,98589.92
2018-07-25T16:43:15.151Z,98586.47
2018-07-25T16:45:44.497Z,98585.09
2018-07-25T16:48:13.568Z,98589.70
2018-07-25T16:50:42.657Z,98591.69
2018-07-25T16:53:11.739Z,98589.28
2018-07-25T16:55:40.889Z,98584.27
2018-07-25T16:58:10.212Z,98586.13
2018-07-25T17:00:39.346Z,98588.28
2018-07-25T17:03:08.446Z,98591.09
2018-07-25T17:05:37.509Z,98580.34
2018-07-25T17:08:06.705Z,98578.23
2018-07-25T17:10:35.822Z,98577.52
2018-07-25T17:13:04.999Z,98581.42
2018-07-25T17:15:34.214Z,98585.02
2018-07-25T17:18:03.310Z,98587.54
2018-07-25T17:20:32.421Z,98586.80
2018-07-25T17:23:01.533Z,98587.88
2018-07-25T17:25:31.522Z,98589.50
2018-07-25T17:28:00.658Z,98594.06
2018-07-25T17:30:29.753Z,98596.64
2018-07-25T17:32:58.797Z,98601.49
2018-07-25T17:35:27.886Z,98600.86
2018-07-25T17:37:57.055Z,98599.86
2018-07-25T17:40:26.267Z,98600.44
2018-07-25T17:42:55.466Z,98600.42
2018-07-25T17:45:24.585Z,98601.84
2018-07-25T17:47:53.719Z,98603.08
2018-07-25T17:50:22.852Z,98605.23
2018-07-25T17:52:52.005Z,98608.64
2018-07-25T17:55:21.159Z,98606.61
2018-07-25T17:57:50.265Z,98610.57
2018-07-25T18:00:19.356Z,98607.83
2018-07-25T18:02:48.438Z,98614.49
2018-07-25T18:05:17.536Z,98615.42
2018-07-25T18:07:46.634Z,98619.05
2018-07-25T18:10:15.774Z,98619.83
2018-07-25T18:12:44.907Z,98621.70
2018-07-25T18:15:14.080Z,98620.38
2018-07-25T18:17:43.199Z,98622.62
2018-07-25T18:20:12.293Z,98627.45
2018-07-25T18:22:41.376Z,98633.16
2018-07-25T18:25:11.339Z,98636.49
2018-07-25T18:27:40.517Z,98635.87
2018-07-25T18:30:09.874Z,98640.50
2018-07-25T18:32:38.929Z,98644.78
2018-07-25T18:35:08.107Z,98639.55
2018-07-25T18:37:37.163Z,98643.11
2018-07-25T18:40:06.294Z,98640.61
2018-07-25T18:42:35.406Z,98644.96
2018-07-25T18:45:04.703Z,98641.69
2018-07-25T18:47:33.829Z,98646.48
2018-07-25T18:50:02.902Z,98651.91
2018-07-25T18:52:31.953Z,98650.92
2018-07-25T18:55:01.116Z,98652.30
2018-07-25T18:57:30.220Z,98652.41
2018-07-25T18:59:59.317Z,98653.23
2018-07-25T19:02:28.665Z,98652.54
2018-07-25T19:05:03.001Z,98652.27
2018-07-25T19:07:32.188Z,98663.78
2018-07-25T19:10:01.355Z,98663.77
2018-07-25T19:12:30.608Z,98669.56
2018-07-25T19:15:04.929Z,98673.03
2018-07-25T19:17:34.616Z,98671.95
2018-07-25T19:20:03.662Z,98669.39
2018-07-25T19:22:32.758Z,98678.44
2018-07-25T19:25:01.802Z,98686.30
2018-07-25T19:27:30.957Z,98694.56
2018-07-25T19:30:00.065Z,98697.70
2018-07-25T19:32:29.199Z,98694.41
2018-07-25T19:34:58.379Z,98692.45
2018-07-25T19:37:27.749Z,98689.55
2018-07-25T19:39:57.369Z,98687.45
2018-07-25T19:42:27.062Z,98697.41
2018-07-25T19:44:56.551Z,98690.84
2018-07-25T19:47:26.531Z,98696.21
2018-07-25T19:49:56.099Z,98690.26
2018-07-25T19:52:25.190Z,98697.07
2018-07-25T19:54:54.738Z,98699.80
2018-07-25T19:57:23.823Z,98709.48
2018-07-25T19:59:52.987Z,98712.08
2018-07-25T20:02:22.066Z,98709.41
2018-07-25T20:04:51.173Z,98712.77
2018-07-25T20:07:20.282Z,98709.11
2018-07-25T20:09:49.329Z,98716.98
2018-07-25T20:12:18.589Z,98713.16
2018-07-25T20:14:52.927Z,98720.02
2018-07-25T20:17:22.017Z,98726.70
2018-07-25T20:19:51.141Z,98725.63
2018-07-25T20:22:20.325Z,98724.28
2018-07-25T20:24:49.478Z,98718.03
2018-07-25T20:27:18.631Z,98720.32
2018-07-25T20:29:47.726Z,98720.53
2018-07-25T20:32:16.875Z,98713.33
2018-07-25T20:34:46.010Z,98718.24
2018-07-25T20:37:15.253Z,98721.91
2018-07-25T20:39:44.566Z,98721.44
2018-07-25T20:42:13.696Z,98716.99
2018-07-25T20:44:42.813Z,98715.27
2018-07-25T20:47:11.970Z,98717.97
2018-07-25T20:49:41.607Z,98723.99
2018-07-25T20:52:10.881Z,98724.56
2018-07-25T20:54:39.949Z,98729.23
2018-07-25T20:57:09.083Z,98729.63
2018-07-25T20:59:38.246Z,98730.17
2018-07-25T21:02:07.512Z,98733.20
2018-07-25T21:04:36.690Z,98731.81
2018-07-25T21:07:05.867Z,98730.81
2018-07-25T21:09:34.939Z,98736.56
2018-07-25T21:12:04.061Z,98737.70
2018-07-25T21:14:33.266Z,98729.48
2018-07-25T21:17:02.374Z,98738.71
2018-07-25T21:19:31.964Z,98734.14
2018-07-25T21:22:01.078Z,98739.78
2018-07-25T21:24:30.142Z,98738.61
2018-07-25T21:26:59.217Z,98738.44
2018-07-25T21:29:28.347Z,98738.66
2018-07-25T21:31:57.455Z,98739.41
2018-07-25T21:34:26.653Z,98735.44
2018-07-25T21:36:55.758Z,98734.96
2018-07-25T21:39:24.894Z,98738.55
2018-07-25T21:41:53.999Z,98737.59
2018-07-25T21:44:23.103Z,98731.42
2018-07-25T21:46:52.175Z,98744.06
2018-07-25T21:49:21.312Z,98741.76
2018-07-25T21:51:50.414Z,98740.91
2018-07-25T21:54:19.499Z,98738.38
2018-07-25T21:56:48.589Z,98737.57
2018-07-25T21:59:17.659Z,98739.38
2018-07-25T22:01:46.761Z,98737.98
2018-07-25T22:04:15.943Z,98743.95
2018-07-25T22:06:44.997Z,98744.47
2018-07-25T22:09:14.157Z,98748.02
2018-07-25T22:11:43.234Z,98745.80
2018-07-25T22:14:12.321Z,98754.31
2018-07-25T22:16:41.443Z,98754.66
2018-07-25T22:19:10.552Z,98756.09
2018-07-25T22:21:40.492Z,98759.67
2018-07-25T22:24:09.611Z,98756.75
2018-07-25T22:26:38.673Z,98764.25
2018-07-25T22:29:07.838Z,98773.61
2018-07-25T22:31:36.933Z,98764.84
2018-07-25T22:34:06.282Z,98770.27
2018-07-25T22:36:35.378Z,98777.08
2018-07-25T22:39:07.507Z,98776.36
2018-07-25T22:41:36.998Z,98775.77
2018-07-25T22:44:06.321Z,98772.72
2018-07-25T22:46:35.381Z,98772.28
2018-07-25T22:49:04.422Z,98776.25
2018-07-25T22:51:33.522Z,98779.78
2018-07-25T22:54:03.454Z,98779.89
2018-07-25T22:56:32.603Z,98774.78
2018-07-25T22:59:01.767Z,98777.60
2018-07-25T23:01:30.992Z,98771.78
2018-07-25T23:04:01.067Z,98767.57
2018-07-25T23:06:30.139Z,98769.12
2018-07-25T23:08:59.210Z,98777.68
2018-07-25T23:11:28.329Z,98771.52
2018-07-25T23:13:57.621Z,98772.98
2018-07-25T23:16:26.703Z,98774.30
2018-07-25T23:18:55.817Z,98773.52
2018-07-25T23:21:24.974Z,98779.27
2018-07-25T23:23:54.026Z,98780.16
2018-07-25T23:26:23.206Z,98781.56
2018-07-25T23:28:52.585Z,98775.27
2018-07-25T23:31:21.669Z,98773.96
2018-07-25T23:33:50.920Z,98770.95
2018-07-25T23:36:20.110Z,98772.93
2018-07-25T23:38:49.273Z,98772.93
2018-07-25T23:41:18.372Z,98764.44
2018-07-25T23:43:47.647Z,98773.49
2018-07-25T23:46:17.439Z,98764.97
2018-07-25T23:48:46.610Z,98760.71
2018-07-25T23:51:15.744Z,98765.45
2018-07-25T23:53:44.972Z,98764.49
2018-07-25T23:56:14.035Z,98765.55
2018-07-25T23:58:43.190Z,98763.19
